Time;durP1;ratioP1;P1;durP2;ratioP2;P2;SDS_P1;SDS_P2;PMS_P1;PMS_P2;Temp;Humidity;BMP_temperature;BMP_pressure;BME280_temperature;BME280_humidity;BME280_pressure;Samples;Min_cycle;Max_cycle;Signal;HPM_P1;HPM_P2
2022/06/02 00:01:55;;;;;;;8.95;7.38;;;9.60;99.90;;;;;;5071739;28;21757;-51
2022/06/02 00:04:45;;;;;;;9.68;7.15;;;9.70;99.90;;;;;;5071376;28;20059;-50
2022/06/02 00:07:19;;;;;;;9.50;7.70;;;9.70;99.90;;;;;;5071237;28;20124;-50
2022/06/02 00:10:10;;;;;;;8.93;7.22;;;9.70;99.90;;;;;;5071197;28;20441;-52
2022/06/02 00:12:47;;;;;;;8.07;5.80;;;9.70;99.90;;;;;;5070764;28;20040;-49
2022/06/02 00:15:28;;;;;;;6.43;5.20;;;9.50;99.90;;;;;;5070427;28;20052;-50
2022/06/02 00:18:26;;;;;;;6.95;5.40;;;9.60;99.90;;;;;;5070953;28;20068;-49
2022/06/02 00:21:16;;;;;;;6.90;5.60;;;9.60;99.90;;;;;;5070363;28;20040;-49
2022/06/02 00:23:46;;;;;;;7.22;5.53;;;9.60;99.90;;;;;;5052977;28;20510;-45
2022/06/02 00:26:41;;;;;;;7.05;5.63;;;9.50;99.90;;;;;;5052765;28;20037;-49
2022/06/02 00:29:24;;;;;;;7.93;6.18;;;9.40;99.90;;;;;;5068960;28;20052;-50
2022/06/02 00:31:59;;;;;;;7.80;5.75;;;9.50;99.90;;;;;;5070766;28;20086;-48
2022/06/02 00:34:54;;;;;;;8.27;6.30;;;9.40;99.90;;;;;;5070172;28;20041;-52
2022/06/02 00:37:47;;;;;;;7.68;6.07;;;9.20;99.90;;;;;;5070372;28;20119;-52
2022/06/02 00:40:13;;;;;;;7.90;6.35;;;9.10;99.90;;;;;;5070738;28;20379;-48
2022/06/02 00:42:55;;;;;;;7.43;5.93;;;9.10;99.90;;;;;;5069867;28;20475;-50
2022/06/02 00:45:21;;;;;;;6.80;5.80;;;9.10;99.90;;;;;;5070301;28;20037;-49
2022/06/02 00:48:06;;;;;;;9.13;6.78;;;9.10;99.90;;;;;;5070259;28;20039;-49
2022/06/02 00:51:03;;;;;;;8.63;6.97;;;9.20;99.90;;;;;;5070286;28;20391;-48
2022/06/02 00:59:57;;;;;;;10.88;7.47;;;9.20;99.90;;;;;;5070355;28;20154;-50
2022/06/02 01:02:24;;;;;;;9.18;7.10;;;9.00;99.90;;;;;;5070469;28;20170;-51
2022/06/02 01:04:49;;;;;;;12.63;7.28;;;9.10;99.90;;;;;;5052173;28;20052;-51
2022/06/02 01:07:26;;;;;;;8.55;6.63;;;9.00;99.90;;;;;;5070048;28;20032;-46
2022/06/02 01:10:19;;;;;;;9.15;6.82;;;9.00;99.90;;;;;;5069929;28;20040;-48
2022/06/02 01:13:14;;;;;;;8.35;6.47;;;8.90;99.90;;;;;;5068632;28;20024;-48
2022/06/02 01:15:43;;;;;;;;;;;8.90;99.90;;;;;;5070382;28;20048;-47
2022/06/02 01:18:34;;;;;;;8.13;6.85;;;8.80;99.90;;;;;;5052065;28;19924;-49
2022/06/02 01:21:12;;;;;;;10.05;7.70;;;8.90;99.90;;;;;;5064843;28;20403;-47
2022/06/02 01:24:29;;;;;;;8.93;7.45;;;8.80;99.90;;;;;;5070111;28;20527;-47
2022/06/02 01:27:03;;;;;;;9.70;7.80;;;8.90;99.90;;;;;;4980766;28;20047;-46
2022/06/02 01:30:03;;;;;;;9.35;7.47;;;8.80;99.90;;;;;;5070104;28;20479;-47
2022/06/02 01:32:42;;;;;;;16.00;7.32;;;8.90;99.90;;;;;;5070033;28;20120;-47
2022/06/02 01:35:23;;;;;;;9.05;7.00;;;8.90;99.90;;;;;;5070082;28;20036;-48
2022/06/02 01:38:22;;;;;;;9.20;6.53;;;8.60;99.90;;;;;;5068815;28;20036;-50
2022/06/02 01:41:07;;;;;;;8.13;6.43;;;8.60;99.90;;;;;;5072725;28;20040;-50
2022/06/02 01:43:45;;;;;;;8.50;6.80;;;8.50;99.90;;;;;;5073641;28;20043;-49
2022/06/02 01:46:37;;;;;;;8.70;6.45;;;8.60;99.90;;;;;;5074073;28;20082;-50
2022/06/02 01:49:18;;;;;;;9.20;7.00;;;8.50;99.90;;;;;;5073888;28;20037;-47
2022/06/02 01:51:58;;;;;;;8.85;6.70;;;8.50;99.90;;;;;;5074238;28;20044;-49
2022/06/02 01:54:45;;;;;;;7.93;6.03;;;8.40;99.90;;;;;;5073899;28;20036;-47
2022/06/02 01:57:30;;;;;;;7.13;5.22;;;8.50;99.90;;;;;;5073478;28;20439;-51
2022/06/02 02:00:04;;;;;;;6.00;4.60;;;8.40;99.90;;;;;;5073540;28;20456;-48
2022/06/02 02:02:48;;;;;;;;;;;8.30;99.90;;;;;;5072858;28;20133;-49
2022/06/02 02:05:22;;;;;;;8.02;5.75;;;8.40;99.90;;;;;;5055482;28;19917;-51
2022/06/02 02:08:11;;;;;;;8.48;6.00;;;8.10;99.90;;;;;;5073687;28;20044;-49
2022/06/02 02:11:04;;;;;;;8.43;6.50;;;8.10;99.90;;;;;;5073445;28;20392;-48
2022/06/02 02:14:03;;;;;;;10.07;7.32;;;8.00;99.90;;;;;;5072565;28;20537;-49
2022/06/02 02:16:59;;;;;;;10.27;7.65;;;8.30;99.90;;;;;;5073595;28;20044;-48
2022/06/02 02:19:47;;;;;;;9.95;8.43;;;7.90;99.90;;;;;;5073046;28;20166;-51
2022/06/02 02:22:21;;;;;;;12.15;9.50;;;7.90;99.90;;;;;;5073246;28;20063;-50
2022/06/02 02:25:02;;;;;;;12.57;9.68;;;7.90;99.90;;;;;;5073347;28;20464;-49
2022/06/02 02:28:03;;;;;;;14.45;11.18;;;8.00;99.90;;;;;;5073075;28;20055;-46
2022/06/02 02:30:44;;;;;;;13.50;10.38;;;8.10;99.90;;;;;;5072943;28;20085;-50
2022/06/02 02:33:40;;;;;;;13.30;10.52;;;8.10;99.90;;;;;;5073307;28;20044;-48
2022/06/02 02:36:32;;;;;;;14.77;10.95;;;7.90;99.90;;;;;;5073176;28;20072;-46
2022/06/02 02:39:14;;;;;;;13.55;11.10;;;8.00;99.90;;;;;;5072107;28;20041;-49
2022/06/02 02:41:59;;;;;;;16.73;11.18;;;8.40;99.90;;;;;;5054787;28;20033;-49
2022/06/02 02:44:37;;;;;;;13.13;10.63;;;8.10;99.90;;;;;;5054514;28;20033;-49
2022/06/02 02:47:25;;;;;;;12.98;10.23;;;8.70;99.90;;;;;;5072890;28;20112;-47
2022/06/02 02:50:26;;;;;;;10.35;7.70;;;8.20;99.90;;;;;;5072910;28;20036;-50
2022/06/02 02:53:00;;;;;;;10.10;8.02;;;7.90;99.90;;;;;;5054832;28;20045;-49
2022/06/02 02:55:33;;;;;;;8.68;7.00;;;7.80;99.90;;;;;;5072324;28;20037;-50
2022/06/02 02:58:16;;;;;;;8.57;7.10;;;7.90;99.90;;;;;;5054031;28;20079;-48
2022/06/02 03:01:14;;;;;;;9.63;6.88;;;7.80;99.90;;;;;;5072596;28;20471;-46
2022/06/02 03:04:01;;;;;;;8.15;6.30;;;7.80;99.90;;;;;;5072202;28;20044;-50
2022/06/02 03:06:31;;;;;;;8.30;6.30;;;7.90;99.90;;;;;;5072198;28;20036;-47
2022/06/02 03:09:14;;;;;;;9.70;7.50;;;7.90;99.90;;;;;;5070839;28;20044;-49
2022/06/02 03:11:57;;;;;;;9.63;6.72;;;7.80;99.90;;;;;;5072109;28;20052;-50
2022/06/02 03:14:48;;;;;;;9.07;7.00;;;7.90;99.90;;;;;;5071547;28;20057;-51
2022/06/02 03:17:14;;;;;;;7.20;6.07;;;7.80;99.90;;;;;;5072343;28;20075;-48
2022/06/02 03:20:13;;;;;;;48.03;6.40;;;7.90;99.90;;;;;;5072299;28;20454;-49
2022/06/02 03:22:56;;;;;;;15.30;5.68;;;7.90;99.90;;;;;;5071710;28;20129;-49
2022/06/02 03:25:52;;;;;;;6.80;5.05;;;7.80;99.90;;;;;;5053648;28;20040;-48
2022/06/02 03:28:22;;;;;;;13.48;5.65;;;8.00;99.90;;;;;;5072042;28;20082;-52
2022/06/02 03:31:10;;;;;;;7.18;5.50;;;8.10;99.90;;;;;;5071850;28;20436;-50
2022/06/02 03:33:42;;;;;;;7.20;6.05;;;7.90;99.90;;;;;;5071796;28;20041;-48
2022/06/02 03:36:56;;;;;;;11.93;5.88;;;8.10;99.90;;;;;;5070493;28;20510;-47
2022/06/02 03:40:14;;;;;;;71.50;7.72;;;7.80;99.90;;;;;;5027887;28;20048;-47
2022/06/02 03:42:47;;;;;;;110.43;9.30;;;7.70;99.90;;;;;;5026998;28;20072;-48
2022/06/02 03:45:27;;;;;;;63.67;7.90;;;7.50;99.90;;;;;;5071098;28;20059;-46
2022/06/02 03:48:25;;;;;;;60.92;7.80;;;7.60;99.90;;;;;;5071644;28;20558;-47
2022/06/02 03:51:06;;;;;;;40.25;8.65;;;7.30;99.90;;;;;;5071380;28;20383;-48
2022/06/02 03:54:04;;;;;;;17.77;8.40;;;7.30;99.90;;;;;;5071113;28;20041;-50
2022/06/02 03:56:36;;;;;;;18.20;8.68;;;7.40;99.90;;;;;;5057468;28;20132;-47
2022/06/02 03:59:07;;;;;;;17.27;7.45;;;7.60;99.90;;;;;;5070845;28;20048;-47
2022/06/02 04:01:39;;;;;;;14.68;6.60;;;7.50;99.90;;;;;;5071149;28;20033;-48
2022/06/02 04:04:40;;;;;;;18.35;6.68;;;7.90;99.90;;;;;;5070656;28;20036;-47
2022/06/02 04:07:30;;;;;;;20.63;6.80;;;7.30;99.90;;;;;;4989401;28;20059;-46
2022/06/02 04:10:23;;;;;;;53.00;7.38;;;7.30;99.90;;;;;;5066324;28;20048;-47
2022/06/02 04:16:12;;;;;;;12.98;7.00;;;7.50;99.90;;;;;;5070637;28;20102;-47
2022/06/02 04:20:34;;;;;;;23.05;8.00;;;7.80;99.90;;;;;;5070483;28;20052;-46
2022/06/02 04:22:12;;;;;;;19.27;8.52;;;7.60;99.90;;;;;;5070679;28;20127;-48
2022/06/02 04:25:08;;;;;;;18.67;9.98;;;7.70;99.90;;;;;;5070109;28;20047;-46
2022/06/02 04:27:46;;;;;;;12.63;10.27;;;7.50;99.90;;;;;;5070152;28;20051;-46
2022/06/02 04:30:33;;;;;;;16.77;11.52;;;7.80;99.90;;;;;;5053150;28;20044;-48
2022/06/02 04:33:28;;;;;;;15.00;11.95;;;7.60;99.90;;;;;;5070429;28;20033;-47
2022/06/02 04:36:14;;;;;;;16.38;13.35;;;7.60;99.90;;;;;;5052682;28;20075;-48
2022/06/02 04:39:02;;;;;;;16.98;13.32;;;7.90;99.90;;;;;;5070597;28;20048;-49
2022/06/02 04:41:42;;;;;;;14.50;12.35;;;8.00;99.90;;;;;;5070485;28;20041;-47
2022/06/02 04:44:32;;;;;;;17.35;13.80;;;8.10;99.90;;;;;;5070060;28;20041;-46
2022/06/02 04:47:22;;;;;;;17.90;13.98;;;8.10;99.90;;;;;;5070608;28;20074;-49
2022/06/02 04:50:19;;;;;;;20.25;14.65;;;8.50;99.90;;;;;;5070500;28;20479;-48
2022/06/02 04:53:34;;;;;;;20.73;15.85;;;8.30;99.90;;;;;;5069466;28;20051;-49
2022/06/02 04:56:21;;;;;;;20.33;16.55;;;8.30;99.90;;;;;;5031661;28;20151;-47
2022/06/02 04:58:59;;;;;;;26.42;19.27;;;8.40;99.90;;;;;;5070409;28;20033;-48
2022/06/02 05:02:03;;;;;;;22.88;17.88;;;8.60;99.90;;;;;;5070489;28;20036;-47
2022/06/02 05:04:53;;;;;;;25.65;19.48;;;9.10;99.90;;;;;;5002344;28;20076;-48
2022/06/02 05:07:43;;;;;;;27.45;19.73;;;8.70;99.90;;;;;;5069985;28;20977;-47
2022/06/02 05:10:20;;;;;;;23.95;18.30;;;8.80;99.90;;;;;;5069860;28;20055;-45
2022/06/02 05:13:27;;;;;;;24.45;18.33;;;9.20;99.90;;;;;;5069811;28;20498;-49
2022/06/02 05:16:23;;;;;;;22.17;16.90;;;8.80;99.90;;;;;;5058239;28;20543;-50
2022/06/02 05:19:24;;;;;;;23.58;18.02;;;9.10;99.90;;;;;;5052117;28;20049;-50
2022/06/02 05:22:05;;;;;;;22.45;17.02;;;9.10;99.90;;;;;;4968984;28;20035;-44
2022/06/02 05:24:55;;;;;;;22.98;17.45;;;9.10;99.90;;;;;;5059241;28;20044;-47
2022/06/02 05:27:35;;;;;;;22.88;16.90;;;9.00;99.90;;;;;;5069797;28;20086;-45
2022/06/02 05:30:33;;;;;;;26.42;19.20;;;9.30;99.90;;;;;;5070168;28;20442;-47
2022/06/02 05:33:25;;;;;;;26.73;19.50;;;9.50;99.90;;;;;;5070215;28;20044;-47
2022/06/02 05:36:02;;;;;;;30.42;20.88;;;9.50;99.90;;;;;;5070155;28;20471;-52
2022/06/02 05:39:05;;;;;;;30.73;21.33;;;9.70;99.90;;;;;;5051669;28;20520;-47
2022/06/02 05:41:56;;;;;;;34.70;22.08;;;10.00;99.90;;;;;;5069956;28;20067;-50
2022/06/02 05:44:45;;;;;;;32.88;22.58;;;10.10;99.90;;;;;;5068870;28;20032;-48
2022/06/02 05:47:29;;;;;;;30.33;22.38;;;9.90;99.90;;;;;;5069521;28;20048;-48
2022/06/02 05:50:01;;;;;;;29.85;20.27;;;10.20;99.90;;;;;;5069868;28;20044;-48
2022/06/02 05:52:39;;;;;;;28.45;20.08;;;10.40;99.90;;;;;;5069365;28;20373;-47
2022/06/02 05:55:46;;;;;;;28.88;19.35;;;10.60;99.90;;;;;;5069640;28;20052;-50
2022/06/02 05:58:23;;;;;;;23.75;18.27;;;10.40;99.90;;;;;;5069838;28;20120;-49
2022/06/02 06:01:09;;;;;;;25.45;18.20;;;10.70;99.90;;;;;;5070142;28;20033;-48
2022/06/02 06:03:44;;;;;;;21.40;16.20;;;10.90;99.90;;;;;;5034678;28;20053;-48
2022/06/02 06:06:43;;;;;;;17.08;12.95;;;11.10;99.90;;;;;;5069395;28;20029;-45
2022/06/02 06:09:15;;;;;;;20.10;13.13;;;11.00;99.90;;;;;;5069767;28;20036;-49
2022/06/02 06:12:09;;;;;;;16.50;10.20;;;11.00;99.90;;;;;;5068496;28;20037;-46
2022/06/02 06:14:45;;;;;;;12.88;9.18;;;11.30;99.90;;;;;;5068764;28;20052;-46
2022/06/02 06:17:32;;;;;;;10.18;8.60;;;11.40;99.90;;;;;;5069697;28;20053;-49
2022/06/02 06:20:35;;;;;;;13.18;7.95;;;11.40;99.90;;;;;;5069870;28;20040;-51
2022/06/02 06:23:23;;;;;;;10.88;8.27;;;11.50;99.90;;;;;;5069187;28;20074;-46
2022/06/02 06:26:27;;;;;;;12.65;7.80;;;11.60;99.90;;;;;;5038397;28;20057;-47
2022/06/02 06:29:16;;;;;;;8.88;6.13;;;11.60;99.90;;;;;;5073062;28;20076;-47
2022/06/02 06:32:06;;;;;;;7.97;5.47;;;11.80;99.90;;;;;;5059537;28;20056;-47
2022/06/02 06:35:06;;;;;;;7.32;4.32;;;11.90;99.90;;;;;;5073419;28;20047;-49
2022/06/02 06:37:50;;;;;;;6.00;3.15;;;11.90;99.90;;;;;;5073221;28;20041;-49
2022/06/02 06:40:27;;;;;;;;;;;11.90;99.90;;;;;;5071658;28;20238;-47
2022/06/02 06:43:03;;;;;;;6.82;3.60;;;12.00;99.90;;;;;;5072693;28;19923;-49
2022/06/02 06:46:01;;;;;;;6.85;3.90;;;12.10;99.90;;;;;;5072534;28;20078;-49
2022/06/02 06:48:35;;;;;;;6.00;3.70;;;12.20;99.90;;;;;;5072663;28;20036;-48
2022/06/02 06:51:36;;;;;;;6.32;3.97;;;12.20;99.90;;;;;;5072789;28;20384;-47
2022/06/02 06:54:20;;;;;;;6.32;3.92;;;12.20;99.90;;;;;;5065436;28;20052;-46
2022/06/02 06:56:51;;;;;;;8.25;4.22;;;12.40;99.90;;;;;;5072731;28;20124;-48
2022/06/02 06:59:51;;;;;;;7.32;4.38;;;12.30;99.90;;;;;;5072130;28;20067;-46
2022/06/02 07:02:32;;;;;;;5.43;3.65;;;12.40;99.90;;;;;;5072228;28;20040;-50
2022/06/02 07:05:12;;;;;;;6.25;4.05;;;12.40;99.90;;;;;;5072555;28;20115;-49
2022/06/02 07:08:03;;;;;;;6.88;3.40;;;12.40;99.90;;;;;;5072644;28;20487;-50
2022/06/02 07:10:35;;;;;;;6.88;3.53;;;12.40;99.90;;;;;;5072374;28;20427;-47
2022/06/02 07:13:19;;;;;;;7.63;3.90;;;12.60;99.90;;;;;;5072130;28;20123;-47
2022/06/02 07:16:10;;;;;;;5.57;2.78;;;12.80;99.90;;;;;;5071685;28;20050;-46
2022/06/02 07:18:55;;;;;;;4.70;2.78;;;12.80;99.90;;;;;;5072060;28;20080;-50
2022/06/02 07:21:45;;;;;;;4.60;2.50;;;12.70;99.90;;;;;;5072449;28;20119;-47
2022/06/02 07:24:29;;;;;;;5.22;2.53;;;12.70;99.90;;;;;;5071963;28;20514;-48
2022/06/02 07:27:12;;;;;;;12.10;2.85;;;12.80;99.90;;;;;;5070905;28;20036;-48
2022/06/02 07:29:50;;;;;;;4.97;2.60;;;13.00;99.90;;;;;;5071828;28;20043;-51
2022/06/02 07:32:22;;;;;;;6.60;2.55;;;13.10;99.90;;;;;;5071706;28;20044;-49
2022/06/02 07:35:13;;;;;;;4.97;2.13;;;13.20;99.90;;;;;;5037294;28;20040;-53
2022/06/02 07:38:02;;;;;;;5.38;2.78;;;13.20;99.90;;;;;;5071400;28;20043;-50
2022/06/02 07:40:57;;;;;;;6.00;2.58;;;13.30;99.90;;;;;;5071378;28;20404;-49
2022/06/02 07:44:00;;;;;;;4.50;2.45;;;13.50;99.90;;;;;;5071372;28;20051;-47
2022/06/02 07:46:54;;;;;;;5.03;1.90;;;13.60;99.90;;;;;;5071370;28;20036;-47
2022/06/02 07:49:40;;;;;;;6.38;2.00;;;13.80;99.90;;;;;;5071313;28;20032;-50
2022/06/02 07:52:19;;;;;;;3.83;1.98;;;13.60;99.90;;;;;;5071270;28;20074;-49
2022/06/02 07:55:08;;;;;;;3.83;2.00;;;13.40;99.90;;;;;;5071142;28;20228;-49
2022/06/02 07:57:47;;;;;;;4.22;2.00;;;13.10;99.90;;;;;;5024273;28;20049;-50
2022/06/02 08:00:25;;;;;;;7.07;2.30;;;13.60;99.90;;;;;;5071155;28;20040;-51
2022/06/02 08:03:09;;;;;;;5.55;2.30;;;13.70;99.90;;;;;;5071306;28;20103;-49
2022/06/02 08:06:04;;;;;;;5.47;2.40;;;13.70;99.90;;;;;;5071458;28;20048;-51
2022/06/02 08:08:51;;;;;;;5.25;1.98;;;13.90;99.90;;;;;;5070939;28;20396;-49
2022/06/02 08:11:16;;;;;;;5.38;1.88;;;14.00;99.90;;;;;;5071397;28;20055;-49
2022/06/02 08:14:05;;;;;;;4.20;1.90;;;13.70;99.90;;;;;;5071117;28;20127;-49
2022/06/02 08:16:49;;;;;;;4.25;2.10;;;13.70;99.90;;;;;;5070570;28;20044;-46
2022/06/02 08:19:27;;;;;;;3.60;1.80;;;13.80;99.90;;;;;;5071078;28;20040;-50
2022/06/02 08:22:00;;;;;;;3.15;1.60;;;14.00;99.90;;;;;;5071160;28;20113;-49
2022/06/02 08:24:39;;;;;;;4.45;1.70;;;14.10;99.90;;;;;;5069769;28;20036;-48
2022/06/02 08:27:35;;;;;;;4.07;1.85;;;13.80;99.90;;;;;;5071026;28;20044;-47
2022/06/02 08:30:08;;;;;;;3.22;2.10;;;13.90;99.90;;;;;;5070578;28;20096;-51
2022/06/02 08:33:13;;;;;;;5.78;2.45;;;14.00;99.90;;;;;;5070967;28;20028;-47
2022/06/02 08:36:00;;;;;;;5.65;2.00;;;14.20;99.90;;;;;;5066106;28;20040;-49
2022/06/02 08:38:41;;;;;;;5.85;2.20;;;14.20;99.90;;;;;;5070569;28;20099;-48
2022/06/02 08:41:31;;;;;;;4.88;1.95;;;14.30;99.90;;;;;;5052678;28;20040;-51
2022/06/02 08:44:23;;;;;;;4.93;1.83;;;14.30;99.90;;;;;;5070229;28;20036;-48
2022/06/02 08:47:00;;;;;;;3.63;1.73;;;14.40;99.90;;;;;;5070197;28;20052;-46
2022/06/02 08:49:56;;;;;;;5.25;2.35;;;14.40;99.90;;;;;;5051625;28;20047;-48
2022/06/02 08:52:58;;;;;;;4.28;2.08;;;14.40;99.90;;;;;;5070567;28;20124;-49
2022/06/02 08:56:11;;;;;;;4.18;1.90;;;14.60;99.90;;;;;;5070519;28;20094;-48
2022/06/02 08:59:03;;;;;;;4.20;1.95;;;14.70;99.90;;;;;;5043261;28;20063;-45
2022/06/02 09:01:59;;;;;;;6.60;2.20;;;14.90;99.90;;;;;;5070709;28;20046;-46
2022/06/02 09:04:53;;;;;;;5.68;1.70;;;14.90;99.90;;;;;;5070033;28;20036;-47
2022/06/02 09:07:39;;;;;;;4.88;1.88;;;15.00;99.90;;;;;;5070425;28;20391;-48
2022/06/02 09:10:23;;;;;;;3.78;1.90;;;15.20;99.90;;;;;;5070061;28;20040;-50
2022/06/02 09:13:07;;;;;;;;;;;15.80;99.90;;;;;;5070614;28;20036;-49
2022/06/02 09:16:10;;;;;;;3.00;1.92;;;16.10;99.90;;;;;;5069369;28;19928;-50
2022/06/02 09:18:57;;;;;;;7.18;2.08;;;16.50;99.90;;;;;;5052181;28;20087;-48
2022/06/02 09:21:33;;;;;;;4.68;1.75;;;16.40;99.90;;;;;;5070140;28;20036;-49
2022/06/02 09:24:14;;;;;;;4.78;2.10;;;15.90;99.90;;;;;;5070057;28;20043;-50
2022/06/02 09:26:58;;;;;;;3.80;1.90;;;15.50;99.90;;;;;;5070253;28;20037;-48
2022/06/02 09:29:30;;;;;;;4.45;1.73;;;16.00;99.90;;;;;;5051368;28;20037;-50
2022/06/02 09:32:21;;;;;;;4.95;1.60;;;15.90;99.90;;;;;;5070029;28;20039;-49
2022/06/02 09:34:49;;;;;;;4.43;1.50;;;16.30;99.90;;;;;;5069862;28;20037;-50
2022/06/02 09:37:31;;;;;;;4.22;1.30;;;16.60;99.90;;;;;;5069820;28;20472;-47
2022/06/02 09:40:12;;;;;;;3.13;1.40;;;16.60;99.90;;;;;;5069884;28;20128;-51
2022/06/02 09:43:01;;;;;;;4.65;1.55;;;16.80;99.90;;;;;;5069814;28;20369;-48
2022/06/02 09:46:14;;;;;;;2.50;1.33;;;16.70;99.90;;;;;;5069689;28;20064;-49
2022/06/02 09:48:50;;;;;;;3.13;1.50;;;16.80;99.90;;;;;;5069874;28;20093;-49
2022/06/02 09:51:31;;;;;;;3.85;1.58;;;16.90;99.90;;;;;;5069754;28;20541;-48
2022/06/02 09:54:19;;;;;;;2.17;1.30;;;17.10;99.90;;;;;;5069739;28;20052;-49
2022/06/02 10:00:24;;;;;;;4.20;1.45;;;17.30;99.90;;;;;;5069822;28;20479;-48
2022/06/02 10:03:01;;;;;;;3.75;1.42;;;17.20;99.90;;;;;;5072409;28;20033;-46
2022/06/02 10:05:48;;;;;;;4.25;1.58;;;17.40;99.90;;;;;;5073399;28;20052;-45
2022/06/02 10:08:38;;;;;;;5.15;1.42;;;17.30;99.90;;;;;;5073809;28;20490;-45
2022/06/02 10:11:24;;;;;;;4.35;1.40;;;17.60;99.90;;;;;;5073263;28;20044;-45
2022/06/02 10:14:09;;;;;;;3.80;1.40;;;17.30;99.90;;;;;;5073295;28;20511;-47
2022/06/02 10:16:48;;;;;;;3.05;1.20;;;17.20;99.90;;;;;;5073439;28;20040;-49
2022/06/02 10:19:19;;;;;;;4.43;1.30;;;17.10;99.90;;;;;;5073324;28;20445;-50
2022/06/02 10:22:27;;;;;;;3.15;1.20;;;17.20;99.90;;;;;;5073233;28;20040;-47
2022/06/02 10:25:11;;;;;;;3.90;1.20;;;17.40;99.90;;;;;;5038532;28;20044;-47
2022/06/02 10:27:54;;;;;;;3.35;1.33;;;17.60;99.90;;;;;;5072970;28;20497;-46
2022/06/02 10:30:30;;;;;;;2.53;1.15;;;17.50;99.90;;;;;;5055155;28;20024;-44
2022/06/02 10:33:38;;;;;;;2.92;1.25;;;17.70;99.90;;;;;;5073222;28;20036;-45
2022/06/02 10:36:25;;;;;;;3.13;1.10;;;18.00;99.90;;;;;;5055124;28;20052;-47
2022/06/02 10:38:59;;;;;;;3.45;1.50;;;17.70;99.90;;;;;;5072613;28;20483;-47
2022/06/02 10:41:48;;;;;;;5.18;1.35;;;17.90;99.90;;;;;;5072032;28;20033;-48
2022/06/02 10:44:16;;;;;;;3.28;1.27;;;17.80;99.90;;;;;;5072523;28;20549;-47
2022/06/02 10:47:05;;;;;;;3.42;1.23;;;18.10;99.90;;;;;;5072781;28;20036;-47
2022/06/02 10:49:36;;;;;;;4.57;1.40;;;18.00;99.90;;;;;;5072353;28;20166;-47
2022/06/02 10:52:36;;;;;;;3.08;1.20;;;18.40;99.90;;;;;;5072734;28;20083;-49
2022/06/02 10:55:39;;;;;;;4.10;1.30;;;18.30;99.90;;;;;;5072520;28;20037;-49
2022/06/02 10:58:41;;;;;;;2.08;1.02;;;18.20;99.90;;;;;;5069198;28;20044;-47
2022/06/02 11:01:45;;;;;;;3.80;1.38;;;18.20;99.90;;;;;;5016975;28;20471;-50
2022/06/02 11:04:23;;;;;;;3.33;1.10;;;18.20;99.90;;;;;;5071396;28;20051;-52
2022/06/02 11:07:20;;;;;;;3.30;1.13;;;18.20;99.90;;;;;;5072641;28;20494;-51
2022/06/02 11:10:04;;;;;;;4.55;1.20;;;18.40;99.90;;;;;;5072619;28;20063;-48
2022/06/02 11:12:35;;;;;;;2.58;0.93;;;18.40;99.90;;;;;;5071960;28;20048;-50
2022/06/02 11:15:39;;;;;;;3.75;1.30;;;18.50;99.90;;;;;;5071577;28;20118;-51
2022/06/02 11:18:31;;;;;;;3.60;0.93;;;18.90;99.90;;;;;;5072277;28;20036;-48
2022/06/02 11:21:27;;;;;;;3.25;1.20;;;18.80;99.90;;;;;;5072292;28;20097;-51
2022/06/02 11:24:07;;;;;;;2.35;1.00;;;19.30;99.90;;;;;;5072122;28;20518;-50
2022/06/02 11:27:04;;;;;;;2.20;1.10;;;19.60;99.90;;;;;;5070979;28;20040;-47
2022/06/02 11:29:55;;;;;;;5.88;1.05;;;19.40;99.90;;;;;;5072081;28;20048;-50
2022/06/02 11:32:33;;;;;;;2.63;1.17;;;18.90;99.90;;;;;;5071868;28;20070;-51
2022/06/02 11:35:37;;;;;;;3.13;1.20;;;18.60;99.90;;;;;;5072046;28;20121;-48
2022/06/02 11:38:24;;;;;;;3.40;1.03;;;18.70;99.90;;;;;;5053828;28;20033;-47
2022/06/02 11:41:08;;;;;;;2.40;1.10;;;19.10;99.90;;;;;;5071896;28;20270;-48
2022/06/02 11:44:01;;;;;;;4.57;1.40;;;19.10;99.90;;;;;;5071963;28;20464;-49
2022/06/02 11:46:45;;;;;;;4.00;1.05;;;18.60;99.90;;;;;;5069869;28;20039;-48
2022/06/02 11:49:17;;;;;;;6.40;1.33;;;18.60;99.90;;;;;;5071652;28;20044;-50
2022/06/02 11:52:27;;;;;;;2.58;1.00;;;18.90;99.90;;;;;;5070238;28;20051;-49
2022/06/02 11:55:23;;;;;;;3.55;1.17;;;19.00;99.90;;;;;;5049275;28;20048;-49
2022/06/02 11:58:07;;;;;;;2.78;0.90;;;18.80;99.90;;;;;;5071073;28;20110;-52
2022/06/02 12:00:54;;;;;;;2.58;1.20;;;18.90;99.90;;;;;;5071748;28;20033;-50
2022/06/02 12:03:57;;;;;;;4.57;1.30;;;19.40;99.90;;;;;;5071054;28;20041;-52
2022/06/02 12:06:55;;;;;;;2.92;1.10;;;19.70;99.90;;;;;;5071495;28;20383;-50
2022/06/02 12:09:33;;;;;;;4.40;1.08;;;19.60;99.90;;;;;;5070078;28;20044;-50
2022/06/02 12:12:04;;;;;;;3.80;1.48;;;20.00;99.90;;;;;;5070771;28;20033;-49
2022/06/02 12:14:42;;;;;;;5.70;1.33;;;19.60;99.90;;;;;;5070349;28;20403;-47
2022/06/02 12:17:34;;;;;;;3.25;1.30;;;19.30;99.90;;;;;;5070792;28;20036;-47
2022/06/02 12:20:27;;;;;;;4.03;1.17;;;18.90;99.90;;;;;;5071140;28;20089;-51
2022/06/02 12:22:56;;;;;;;3.63;1.17;;;18.70;99.90;;;;;;5069708;28;20032;-51
2022/06/02 12:25:40;;;;;;;3.28;1.10;;;18.50;99.90;;;;;;5070103;28;20468;-51
2022/06/02 12:28:17;;;;;;;2.97;1.25;;;18.80;99.90;;;;;;5070680;28;20076;-48
2022/06/02 12:31:01;;;;;;;3.88;1.30;;;18.90;99.90;;;;;;5070906;28;20070;-49
2022/06/02 12:33:45;;;;;;;;;;;19.30;99.90;;;;;;5071194;28;20047;-48
2022/06/02 12:36:35;;;;;;;4.25;0.93;;;19.00;99.90;;;;;;5070510;28;19920;-47
2022/06/02 12:39:20;;;;;;;3.33;1.10;;;18.50;99.90;;;;;;5070819;28;20506;-48
2022/06/02 12:42:18;;;;;;;3.03;1.10;;;18.50;99.90;;;;;;5051456;28;20032;-46
2022/06/02 12:45:17;;;;;;;2.28;1.13;;;18.40;99.90;;;;;;5070191;28;20075;-49
2022/06/02 12:48:04;;;;;;;2.35;1.30;;;18.20;99.90;;;;;;5070517;28;20086;-47
2022/06/02 12:50:47;;;;;;;2.38;1.35;;;18.10;99.90;;;;;;5070605;28;20117;-46
2022/06/02 12:53:19;;;;;;;2.50;1.20;;;18.10;99.90;;;;;;5070613;28;20051;-50
2022/06/02 12:56:19;;;;;;;2.95;1.05;;;18.20;99.90;;;;;;5070539;28;20040;-48
2022/06/02 12:58:48;;;;;;;2.40;1.20;;;18.20;99.90;;;;;;5070507;28;20387;-46
2022/06/02 13:01:19;;;;;;;2.95;1.10;;;18.50;99.90;;;;;;5070470;28;20028;-48
2022/06/02 13:04:06;;;;;;;2.72;1.20;;;18.60;99.90;;;;;;5070110;28;20036;-47
2022/06/02 13:07:05;;;;;;;4.50;1.40;;;19.20;99.90;;;;;;5069989;28;20535;-51
2022/06/02 13:10:20;;;;;;;2.70;1.10;;;19.60;99.90;;;;;;5068631;28;20032;-46
2022/06/02 13:13:01;;;;;;;2.80;1.00;;;20.10;99.90;;;;;;5027021;28;20051;-47
2022/06/02 13:15:45;;;;;;;2.38;0.90;;;20.30;99.90;;;;;;5069580;28;20057;-47
2022/06/02 13:18:52;;;;;;;2.97;0.88;;;20.50;99.90;;;;;;5070207;28;20067;-49
2022/06/02 13:21:39;;;;;;;1.70;0.80;;;21.10;99.50;;;;;;5069439;28;20047;-48
2022/06/02 13:24:46;;;;;;;1.90;1.00;;;21.60;99.30;;;;;;5070151;28;20462;-50
2022/06/02 13:27:39;;;;;;;4.22;1.00;;;21.80;98.80;;;;;;5069958;28;20103;-48
2022/06/02 13:30:28;;;;;;;2.35;0.90;;;21.70;97.40;;;;;;5069941;28;20033;-51
2022/06/02 13:33:12;;;;;;;2.97;1.10;;;21.50;97.30;;;;;;5069864;28;20124;-49
2022/06/02 13:35:56;;;;;;;;;;;21.60;97.90;;;;;;5071209;28;20033;-50
2022/06/02 13:38:34;;;;;;;2.70;0.98;;;21.70;97.90;;;;;;5074082;28;19943;-50
2022/06/02 13:41:20;;;;;;;3.40;1.05;;;21.70;98.90;;;;;;5073331;28;20092;-48
2022/06/02 13:44:08;;;;;;;1.63;0.80;;;21.80;96.50;;;;;;5074196;28;20147;-52
2022/06/02 13:46:49;;;;;;;2.70;1.13;;;22.50;97.40;;;;;;5073705;28;20036;-52
2022/06/02 13:49:52;;;;;;;5.63;1.05;;;21.90;97.20;;;;;;5055943;28;20387;-48
2022/06/02 13:52:57;;;;;;;2.90;1.10;;;22.80;97.70;;;;;;5073911;28;20060;-49
2022/06/02 13:58:55;;;;;;;1.80;0.70;;;21.30;98.10;;;;;;5073280;28;20060;-51
2022/06/02 14:01:47;;;;;;;2.03;0.70;;;21.20;98.10;;;;;;5073734;28;20043;-48
2022/06/02 14:04:28;;;;;;;3.97;0.70;;;22.00;94.90;;;;;;5055500;28;20059;-46
2022/06/02 14:07:10;;;;;;;1.70;0.77;;;22.40;94.90;;;;;;5073338;28;20036;-49
2022/06/02 14:09:59;;;;;;;1.83;0.80;;;22.80;95.80;;;;;;5055195;28;20049;-48
2022/06/02 14:12:53;;;;;;;9.73;1.38;;;23.40;95.80;;;;;;5073546;28;20505;-49
2022/06/02 14:15:18;;;;;;;;;;;23.10;94.50;;;;;;5072982;28;20045;-48
2022/06/02 14:17:55;;;;;;;2.70;0.70;;;23.50;92.70;;;;;;5073550;28;19920;-52
2022/06/02 14:20:54;;;;;;;2.75;0.82;;;23.80;94.00;;;;;;5055481;28;20032;-49
2022/06/02 14:23:42;;;;;;;1.98;0.68;;;23.40;95.50;;;;;;5026219;28;20048;-52
2022/06/02 14:26:53;;;;;;;2.67;0.80;;;22.60;95.80;;;;;;5054924;28;20040;-51
2022/06/02 14:29:57;;;;;;;1.17;0.60;;;22.00;95.60;;;;;;5067782;28;20049;-50
2022/06/02 14:33:00;;;;;;;3.08;0.90;;;22.20;95.30;;;;;;5073166;28;20504;-47
2022/06/02 14:35:49;;;;;;;2.75;1.00;;;21.70;95.60;;;;;;5072115;28;20044;-49
2022/06/02 14:38:25;;;;;;;3.00;0.80;;;21.90;95.90;;;;;;5057322;28;20488;-49
2022/06/02 14:41:13;;;;;;;2.10;0.77;;;21.50;95.90;;;;;;5072876;28;20475;-51
2022/06/02 14:43:56;;;;;;;2.45;0.80;;;21.90;96.10;;;;;;5072765;28;20048;-47
2022/06/02 14:46:47;;;;;;;3.47;0.80;;;21.70;96.50;;;;;;5072512;28;20110;-50